sensor_id;sensor_type;location;lat;lon;timestamp;P1;durP1;ratioP1;P2;durP2;ratioP2
4595;SDS011;2310;49.978;8.742;2022-07-29T00:03:53;4.20;;;3.17;;
4595;SDS011;2310;49.978;8.742;2022-07-29T00:07:54;10.13;;;3.23;;
4595;SDS011;2310;49.978;8.742;2022-07-29T00:11:56;3.77;;;2.77;;
4595;SDS011;2310;49.978;8.742;2022-07-29T00:16:00;7.07;;;3.30;;
4595;SDS011;2310;49.978;8.742;2022-07-29T00:20:03;4.13;;;2.80;;
4595;SDS011;2310;49.978;8.742;2022-07-29T00:24:05;4.57;;;3.30;;
4595;SDS011;2310;49.978;8.742;2022-07-29T00:28:07;3.80;;;2.83;;
4595;SDS011;2310;49.978;8.742;2022-07-29T00:32:08;6.17;;;3.60;;
4595;SDS011;2310;49.978;8.742;2022-07-29T00:36:09;10.37;;;2.77;;
4595;SDS011;2310;49.978;8.742;2022-07-29T00:40:11;6.10;;;2.70;;
4595;SDS011;2310;49.978;8.742;2022-07-29T00:44:12;5.60;;;3.07;;
4595;SDS011;2310;49.978;8.742;2022-07-29T00:48:14;6.80;;;2.97;;
4595;SDS011;2310;49.978;8.742;2022-07-29T00:52:15;8.43;;;2.90;;
4595;SDS011;2310;49.978;8.742;2022-07-29T00:56:18;5.00;;;3.20;;
4595;SDS011;2310;49.978;8.742;2022-07-29T01:00:21;7.10;;;3.50;;
4595;SDS011;2310;49.978;8.742;2022-07-29T01:04:24;8.73;;;3.07;;
4595;SDS011;2310;49.978;8.742;2022-07-29T01:08:26;10.77;;;3.20;;
4595;SDS011;2310;49.978;8.742;2022-07-29T01:12:27;6.90;;;3.10;;
4595;SDS011;2310;49.978;8.742;2022-07-29T01:16:39;5.23;;;2.90;;
4595;SDS011;2310;49.978;8.742;2022-07-29T01:21:01;3.57;;;2.90;;
4595;SDS011;2310;49.978;8.742;2022-07-29T01:33:41;6.23;;;2.77;;
4595;SDS011;2310;49.978;8.742;2022-07-29T01:46:27;7.17;;;3.30;;
4595;SDS011;2310;49.978;8.742;2022-07-29T01:50:34;5.80;;;3.10;;
4595;SDS011;2310;49.978;8.742;2022-07-29T01:54:39;5.27;;;3.50;;
4595;SDS011;2310;49.978;8.742;2022-07-29T01:58:43;5.50;;;2.87;;
4595;SDS011;2310;49.978;8.742;2022-07-29T02:02:46;3.43;;;2.60;;
4595;SDS011;2310;49.978;8.742;2022-07-29T02:06:50;6.00;;;3.20;;
4595;SDS011;2310;49.978;8.742;2022-07-29T02:10:53;6.07;;;3.60;;
4595;SDS011;2310;49.978;8.742;2022-07-29T02:14:57;6.90;;;3.10;;
4595;SDS011;2310;49.978;8.742;2022-07-29T02:19:02;5.63;;;3.27;;
4595;SDS011;2310;49.978;8.742;2022-07-29T02:23:04;8.37;;;3.67;;
4595;SDS011;2310;49.978;8.742;2022-07-29T02:27:08;6.10;;;4.10;;
4595;SDS011;2310;49.978;8.742;2022-07-29T02:31:10;5.30;;;3.43;;
4595;SDS011;2310;49.978;8.742;2022-07-29T02:35:13;10.57;;;3.60;;
4595;SDS011;2310;49.978;8.742;2022-07-29T02:39:16;5.47;;;3.50;;
4595;SDS011;2310;49.978;8.742;2022-07-29T02:43:19;6.63;;;3.40;;
4595;SDS011;2310;49.978;8.742;2022-07-29T02:47:35;6.10;;;4.50;;
4595;SDS011;2310;49.978;8.742;2022-07-29T02:51:46;5.33;;;3.87;;
4595;SDS011;2310;49.978;8.742;2022-07-29T02:55:48;4.40;;;3.43;;
4595;SDS011;2310;49.978;8.742;2022-07-29T03:00:06;5.40;;;3.30;;
4595;SDS011;2310;49.978;8.742;2022-07-29T03:04:09;5.30;;;3.53;;
4595;SDS011;2310;49.978;8.742;2022-07-29T03:08:14;5.93;;;3.67;;
4595;SDS011;2310;49.978;8.742;2022-07-29T03:12:17;5.10;;;2.93;;
4595;SDS011;2310;49.978;8.742;2022-07-29T03:16:19;5.63;;;4.20;;
4595;SDS011;2310;49.978;8.742;2022-07-29T03:20:21;3.67;;;2.93;;
4595;SDS011;2310;49.978;8.742;2022-07-29T03:24:26;8.33;;;3.70;;
4595;SDS011;2310;49.978;8.742;2022-07-29T03:28:29;4.63;;;3.43;;
4595;SDS011;2310;49.978;8.742;2022-07-29T03:32:30;7.10;;;4.27;;
4595;SDS011;2310;49.978;8.742;2022-07-29T03:36:31;4.80;;;3.60;;
4595;SDS011;2310;49.978;8.742;2022-07-29T03:40:33;5.00;;;3.20;;
4595;SDS011;2310;49.978;8.742;2022-07-29T03:44:41;6.13;;;3.50;;
4595;SDS011;2310;49.978;8.742;2022-07-29T03:48:46;8.00;;;3.83;;
4595;SDS011;2310;49.978;8.742;2022-07-29T03:52:50;4.70;;;3.53;;
4595;SDS011;2310;49.978;8.742;2022-07-29T03:56:52;9.80;;;4.13;;
4595;SDS011;2310;49.978;8.742;2022-07-29T04:00:55;6.73;;;4.30;;
4595;SDS011;2310;49.978;8.742;2022-07-29T04:04:58;6.67;;;3.40;;
4595;SDS011;2310;49.978;8.742;2022-07-29T04:08:59;4.77;;;3.53;;
4595;SDS011;2310;49.978;8.742;2022-07-29T04:13:01;4.60;;;2.83;;
4595;SDS011;2310;49.978;8.742;2022-07-29T04:17:03;4.20;;;3.40;;
4595;SDS011;2310;49.978;8.742;2022-07-29T04:21:04;5.57;;;2.90;;
4595;SDS011;2310;49.978;8.742;2022-07-29T04:25:06;6.73;;;4.60;;
4595;SDS011;2310;49.978;8.742;2022-07-29T04:29:08;6.53;;;3.97;;
4595;SDS011;2310;49.978;8.742;2022-07-29T04:33:09;5.67;;;3.17;;
4595;SDS011;2310;49.978;8.742;2022-07-29T04:37:11;5.60;;;3.40;;
4595;SDS011;2310;49.978;8.742;2022-07-29T04:41:12;4.70;;;3.27;;
4595;SDS011;2310;49.978;8.742;2022-07-29T04:45:14;5.77;;;4.17;;
4595;SDS011;2310;49.978;8.742;2022-07-29T04:49:16;5.57;;;3.43;;
4595;SDS011;2310;49.978;8.742;2022-07-29T04:53:18;6.00;;;4.40;;
4595;SDS011;2310;49.978;8.742;2022-07-29T04:57:19;6.87;;;4.03;;
4595;SDS011;2310;49.978;8.742;2022-07-29T05:01:20;5.73;;;3.77;;
4595;SDS011;2310;49.978;8.742;2022-07-29T05:05:21;6.20;;;3.60;;
4595;SDS011;2310;49.978;8.742;2022-07-29T05:09:23;8.00;;;3.83;;
4595;SDS011;2310;49.978;8.742;2022-07-29T05:13:24;6.60;;;4.13;;
4595;SDS011;2310;49.978;8.742;2022-07-29T05:17:25;6.30;;;3.80;;
4595;SDS011;2310;49.978;8.742;2022-07-29T05:21:27;5.60;;;3.93;;
4595;SDS011;2310;49.978;8.742;2022-07-29T05:25:28;7.27;;;3.63;;
4595;SDS011;2310;49.978;8.742;2022-07-29T05:29:32;5.93;;;3.90;;
4595;SDS011;2310;49.978;8.742;2022-07-29T05:33:35;7.73;;;4.27;;
4595;SDS011;2310;49.978;8.742;2022-07-29T05:37:37;6.03;;;4.20;;
4595;SDS011;2310;49.978;8.742;2022-07-29T05:41:38;6.90;;;3.53;;
4595;SDS011;2310;49.978;8.742;2022-07-29T05:45:41;6.23;;;3.90;;
4595;SDS011;2310;49.978;8.742;2022-07-29T05:49:44;7.57;;;3.37;;
4595;SDS011;2310;49.978;8.742;2022-07-29T05:53:45;6.77;;;4.10;;
4595;SDS011;2310;49.978;8.742;2022-07-29T05:57:46;6.67;;;3.93;;
4595;SDS011;2310;49.978;8.742;2022-07-29T06:01:47;5.50;;;4.00;;
4595;SDS011;2310;49.978;8.742;2022-07-29T06:05:49;5.60;;;3.97;;
4595;SDS011;2310;49.978;8.742;2022-07-29T06:09:50;8.90;;;4.43;;
4595;SDS011;2310;49.978;8.742;2022-07-29T06:13:51;6.33;;;4.17;;
4595;SDS011;2310;49.978;8.742;2022-07-29T06:17:53;5.13;;;3.60;;
4595;SDS011;2310;49.978;8.742;2022-07-29T06:21:56;4.90;;;3.83;;
4595;SDS011;2310;49.978;8.742;2022-07-29T06:25:57;6.50;;;4.30;;
4595;SDS011;2310;49.978;8.742;2022-07-29T06:29:58;4.80;;;3.40;;
4595;SDS011;2310;49.978;8.742;2022-07-29T06:33:59;7.30;;;4.00;;
4595;SDS011;2310;49.978;8.742;2022-07-29T06:38:02;6.40;;;3.80;;
4595;SDS011;2310;49.978;8.742;2022-07-29T06:42:06;6.70;;;4.13;;
4595;SDS011;2310;49.978;8.742;2022-07-29T06:46:09;6.50;;;3.90;;
4595;SDS011;2310;49.978;8.742;2022-07-29T06:50:12;5.73;;;4.17;;
4595;SDS011;2310;49.978;8.742;2022-07-29T06:54:13;5.97;;;4.20;;
4595;SDS011;2310;49.978;8.742;2022-07-29T06:58:15;13.33;;;4.63;;
4595;SDS011;2310;49.978;8.742;2022-07-29T07:02:18;10.90;;;3.73;;
4595;SDS011;2310;49.978;8.742;2022-07-29T07:06:19;6.43;;;3.90;;
4595;SDS011;2310;49.978;8.742;2022-07-29T07:10:21;9.50;;;3.70;;
4595;SDS011;2310;49.978;8.742;2022-07-29T07:14:24;10.07;;;4.93;;
4595;SDS011;2310;49.978;8.742;2022-07-29T07:18:27;6.63;;;4.33;;
4595;SDS011;2310;49.978;8.742;2022-07-29T07:22:29;11.90;;;4.13;;
4595;SDS011;2310;49.978;8.742;2022-07-29T07:26:30;11.47;;;7.90;;
4595;SDS011;2310;49.978;8.742;2022-07-29T07:30:31;6.37;;;4.37;;
4595;SDS011;2310;49.978;8.742;2022-07-29T07:34:32;9.60;;;4.03;;
4595;SDS011;2310;49.978;8.742;2022-07-29T07:38:34;7.77;;;4.33;;
4595;SDS011;2310;49.978;8.742;2022-07-29T07:42:36;8.70;;;4.43;;
4595;SDS011;2310;49.978;8.742;2022-07-29T07:46:39;6.27;;;4.50;;
4595;SDS011;2310;49.978;8.742;2022-07-29T07:50:40;6.30;;;4.30;;
4595;SDS011;2310;49.978;8.742;2022-07-29T07:54:41;8.40;;;4.60;;
4595;SDS011;2310;49.978;8.742;2022-07-29T07:58:43;7.80;;;4.33;;
4595;SDS011;2310;49.978;8.742;2022-07-29T08:02:45;6.80;;;4.30;;
4595;SDS011;2310;49.978;8.742;2022-07-29T08:06:46;8.60;;;3.80;;
4595;SDS011;2310;49.978;8.742;2022-07-29T08:10:49;7.30;;;4.30;;
4595;SDS011;2310;49.978;8.742;2022-07-29T08:14:53;5.10;;;4.23;;
4595;SDS011;2310;49.978;8.742;2022-07-29T08:18:55;9.37;;;5.27;;
4595;SDS011;2310;49.978;8.742;2022-07-29T08:22:57;9.37;;;4.97;;
4595;SDS011;2310;49.978;8.742;2022-07-29T08:26:58;7.93;;;4.73;;
4595;SDS011;2310;49.978;8.742;2022-07-29T08:31:00;6.10;;;4.93;;
4595;SDS011;2310;49.978;8.742;2022-07-29T08:35:01;5.60;;;4.40;;
4595;SDS011;2310;49.978;8.742;2022-07-29T08:39:03;5.60;;;4.33;;
4595;SDS011;2310;49.978;8.742;2022-07-29T08:43:05;5.23;;;3.90;;
4595;SDS011;2310;49.978;8.742;2022-07-29T08:47:08;4.87;;;4.23;;
4595;SDS011;2310;49.978;8.742;2022-07-29T08:51:12;6.83;;;5.07;;
4595;SDS011;2310;49.978;8.742;2022-07-29T08:55:14;5.00;;;4.07;;
4595;SDS011;2310;49.978;8.742;2022-07-29T08:59:19;7.77;;;4.33;;
4595;SDS011;2310;49.978;8.742;2022-07-29T09:03:25;7.60;;;4.97;;
4595;SDS011;2310;49.978;8.742;2022-07-29T09:07:29;5.30;;;4.70;;
4595;SDS011;2310;49.978;8.742;2022-07-29T09:11:32;4.57;;;4.17;;
4595;SDS011;2310;49.978;8.742;2022-07-29T09:15:34;5.43;;;4.57;;
4595;SDS011;2310;49.978;8.742;2022-07-29T09:19:36;7.60;;;4.53;;
4595;SDS011;2310;49.978;8.742;2022-07-29T09:23:38;5.40;;;4.30;;
4595;SDS011;2310;49.978;8.742;2022-07-29T09:27:41;4.50;;;4.10;;
4595;SDS011;2310;49.978;8.742;2022-07-29T09:31:48;5.60;;;4.37;;
4595;SDS011;2310;49.978;8.742;2022-07-29T09:36:02;6.60;;;4.43;;
4595;SDS011;2310;49.978;8.742;2022-07-29T09:40:18;5.70;;;4.90;;
4595;SDS011;2310;49.978;8.742;2022-07-29T09:44:18;6.30;;;5.33;;
4595;SDS011;2310;49.978;8.742;2022-07-29T09:48:24;7.57;;;5.40;;
4595;SDS011;2310;49.978;8.742;2022-07-29T09:52:25;5.87;;;4.50;;
4595;SDS011;2310;49.978;8.742;2022-07-29T09:56:40;4.97;;;4.30;;
4595;SDS011;2310;49.978;8.742;2022-07-29T10:00:44;5.07;;;4.27;;
4595;SDS011;2310;49.978;8.742;2022-07-29T10:04:46;6.07;;;4.30;;
4595;SDS011;2310;49.978;8.742;2022-07-29T10:08:47;5.00;;;4.33;;
4595;SDS011;2310;49.978;8.742;2022-07-29T10:12:51;8.63;;;3.93;;
4595;SDS011;2310;49.978;8.742;2022-07-29T10:16:55;4.87;;;4.20;;
4595;SDS011;2310;49.978;8.742;2022-07-29T10:20:56;4.90;;;4.00;;
4595;SDS011;2310;49.978;8.742;2022-07-29T10:24:58;5.70;;;4.53;;
4595;SDS011;2310;49.978;8.742;2022-07-29T10:29:00;4.83;;;4.33;;
4595;SDS011;2310;49.978;8.742;2022-07-29T10:42:05;4.90;;;4.37;;
4595;SDS011;2310;49.978;8.742;2022-07-29T10:46:13;5.63;;;5.13;;
4595;SDS011;2310;49.978;8.742;2022-07-29T10:50:15;5.20;;;4.70;;
4595;SDS011;2310;49.978;8.742;2022-07-29T10:54:18;4.87;;;4.37;;
4595;SDS011;2310;49.978;8.742;2022-07-29T10:58:22;7.50;;;4.50;;
4595;SDS011;2310;49.978;8.742;2022-07-29T11:15:51;5.13;;;4.70;;
4595;SDS011;2310;49.978;8.742;2022-07-29T11:19:58;5.30;;;4.20;;
4595;SDS011;2310;49.978;8.742;2022-07-29T11:24:14;5.90;;;4.47;;
4595;SDS011;2310;49.978;8.742;2022-07-29T11:28:23;4.97;;;4.43;;
4595;SDS011;2310;49.978;8.742;2022-07-29T11:32:28;5.20;;;4.70;;
4595;SDS011;2310;49.978;8.742;2022-07-29T11:36:31;4.77;;;4.27;;
4595;SDS011;2310;49.978;8.742;2022-07-29T11:40:32;6.43;;;5.10;;
4595;SDS011;2310;49.978;8.742;2022-07-29T11:45:16;5.07;;;4.67;;
4595;SDS011;2310;49.978;8.742;2022-07-29T11:49:02;5.73;;;5.20;;
4595;SDS011;2310;49.978;8.742;2022-07-29T11:53:12;7.60;;;5.20;;
4595;SDS011;2310;49.978;8.742;2022-07-29T11:57:16;5.10;;;4.60;;
4595;SDS011;2310;49.978;8.742;2022-07-29T12:01:18;5.60;;;5.10;;
4595;SDS011;2310;49.978;8.742;2022-07-29T12:05:30;4.97;;;4.47;;
4595;SDS011;2310;49.978;8.742;2022-07-29T12:09:33;6.50;;;5.20;;
4595;SDS011;2310;49.978;8.742;2022-07-29T12:13:38;4.77;;;4.37;;
4595;SDS011;2310;49.978;8.742;2022-07-29T12:17:40;6.90;;;5.23;;
4595;SDS011;2310;49.978;8.742;2022-07-29T12:21:45;9.07;;;8.17;;
4595;SDS011;2310;49.978;8.742;2022-07-29T12:25:49;20.97;;;6.63;;
4595;SDS011;2310;49.978;8.742;2022-07-29T12:29:57;5.57;;;4.77;;
4595;SDS011;2310;49.978;8.742;2022-07-29T12:34:01;6.70;;;6.00;;
4595;SDS011;2310;49.978;8.742;2022-07-29T12:38:02;8.10;;;5.33;;
4595;SDS011;2310;49.978;8.742;2022-07-29T12:42:11;6.63;;;5.57;;
4595;SDS011;2310;49.978;8.742;2022-07-29T12:46:16;5.73;;;5.23;;
4595;SDS011;2310;49.978;8.742;2022-07-29T12:50:18;5.87;;;5.27;;
4595;SDS011;2310;49.978;8.742;2022-07-29T12:54:21;5.00;;;4.60;;
4595;SDS011;2310;49.978;8.742;2022-07-29T12:58:25;5.40;;;4.90;;
4595;SDS011;2310;49.978;8.742;2022-07-29T13:02:28;4.87;;;4.47;;
4595;SDS011;2310;49.978;8.742;2022-07-29T13:10:39;6.27;;;5.23;;
4595;SDS011;2310;49.978;8.742;2022-07-29T13:14:45;5.67;;;5.07;;
4595;SDS011;2310;49.978;8.742;2022-07-29T13:18:47;5.50;;;4.90;;
4595;SDS011;2310;49.978;8.742;2022-07-29T13:22:49;6.43;;;5.40;;
4595;SDS011;2310;49.978;8.742;2022-07-29T13:26:50;5.57;;;5.03;;
4595;SDS011;2310;49.978;8.742;2022-07-29T13:30:52;5.87;;;5.30;;
4595;SDS011;2310;49.978;8.742;2022-07-29T13:34:54;4.97;;;4.47;;
4595;SDS011;2310;49.978;8.742;2022-07-29T13:38:57;6.00;;;5.40;;
4595;SDS011;2310;49.978;8.742;2022-07-29T13:42:58;6.03;;;5.43;;
4595;SDS011;2310;49.978;8.742;2022-07-29T13:46:59;5.63;;;5.13;;
4595;SDS011;2310;49.978;8.742;2022-07-29T13:51:00;6.03;;;5.60;;
4595;SDS011;2310;49.978;8.742;2022-07-29T13:55:02;6.80;;;4.60;;
4595;SDS011;2310;49.978;8.742;2022-07-29T13:59:04;5.97;;;5.37;;
4595;SDS011;2310;49.978;8.742;2022-07-29T14:03:05;5.77;;;4.77;;
4595;SDS011;2310;49.978;8.742;2022-07-29T14:07:07;5.87;;;5.30;;
4595;SDS011;2310;49.978;8.742;2022-07-29T14:11:08;5.03;;;4.53;;
4595;SDS011;2310;49.978;8.742;2022-07-29T14:15:09;5.30;;;4.90;;
4595;SDS011;2310;49.978;8.742;2022-07-29T14:19:11;7.10;;;5.90;;
4595;SDS011;2310;49.978;8.742;2022-07-29T14:23:12;5.53;;;5.03;;
4595;SDS011;2310;49.978;8.742;2022-07-29T14:27:15;6.30;;;5.23;;
4595;SDS011;2310;49.978;8.742;2022-07-29T14:31:17;5.27;;;4.73;;
4595;SDS011;2310;49.978;8.742;2022-07-29T14:35:18;6.20;;;5.43;;
4595;SDS011;2310;49.978;8.742;2022-07-29T14:39:19;6.23;;;5.03;;
4595;SDS011;2310;49.978;8.742;2022-07-29T14:43:20;6.03;;;5.53;;
4595;SDS011;2310;49.978;8.742;2022-07-29T14:47:22;5.53;;;5.10;;
4595;SDS011;2310;49.978;8.742;2022-07-29T14:51:24;8.47;;;5.70;;
4595;SDS011;2310;49.978;8.742;2022-07-29T14:55:27;6.17;;;5.57;;
4595;SDS011;2310;49.978;8.742;2022-07-29T14:59:28;5.43;;;4.93;;
4595;SDS011;2310;49.978;8.742;2022-07-29T15:03:30;6.40;;;5.80;;
4595;SDS011;2310;49.978;8.742;2022-07-29T15:07:33;6.50;;;5.07;;
4595;SDS011;2310;49.978;8.742;2022-07-29T15:11:34;7.27;;;4.80;;
4595;SDS011;2310;49.978;8.742;2022-07-29T15:15:37;8.07;;;4.80;;
4595;SDS011;2310;49.978;8.742;2022-07-29T15:19:39;6.47;;;5.10;;
4595;SDS011;2310;49.978;8.742;2022-07-29T15:23:42;16.57;;;5.20;;
4595;SDS011;2310;49.978;8.742;2022-07-29T15:27:43;6.40;;;5.00;;
4595;SDS011;2310;49.978;8.742;2022-07-29T15:31:46;5.90;;;4.57;;
4595;SDS011;2310;49.978;8.742;2022-07-29T15:35:48;4.90;;;4.27;;
4595;SDS011;2310;49.978;8.742;2022-07-29T15:39:49;5.73;;;4.33;;
4595;SDS011;2310;49.978;8.742;2022-07-29T15:43:51;6.60;;;6.00;;
4595;SDS011;2310;49.978;8.742;2022-07-29T15:47:52;10.53;;;6.30;;
4595;SDS011;2310;49.978;8.742;2022-07-29T15:51:53;7.37;;;6.67;;
4595;SDS011;2310;49.978;8.742;2022-07-29T15:55:56;9.30;;;7.10;;
4595;SDS011;2310;49.978;8.742;2022-07-29T15:59:57;7.00;;;6.40;;
4595;SDS011;2310;49.978;8.742;2022-07-29T16:04:00;6.70;;;6.10;;
4595;SDS011;2310;49.978;8.742;2022-07-29T16:08:02;7.23;;;6.40;;
4595;SDS011;2310;49.978;8.742;2022-07-29T16:12:04;7.90;;;6.43;;
4595;SDS011;2310;49.978;8.742;2022-07-29T16:16:08;7.33;;;6.13;;
4595;SDS011;2310;49.978;8.742;2022-07-29T16:20:09;9.30;;;7.23;;
4595;SDS011;2310;49.978;8.742;2022-07-29T16:24:13;7.90;;;7.10;;
4595;SDS011;2310;49.978;8.742;2022-07-29T16:28:14;7.53;;;6.80;;
4595;SDS011;2310;49.978;8.742;2022-07-29T16:32:17;7.80;;;7.00;;
4595;SDS011;2310;49.978;8.742;2022-07-29T16:36:20;7.83;;;6.80;;
4595;SDS011;2310;49.978;8.742;2022-07-29T16:40:21;7.53;;;6.97;;
4595;SDS011;2310;49.978;8.742;2022-07-29T16:44:22;8.43;;;7.63;;
4595;SDS011;2310;49.978;8.742;2022-07-29T16:48:25;16.33;;;7.73;;
4595;SDS011;2310;49.978;8.742;2022-07-29T16:52:27;8.13;;;7.43;;
4595;SDS011;2310;49.978;8.742;2022-07-29T16:56:28;13.63;;;12.50;;
4595;SDS011;2310;49.978;8.742;2022-07-29T17:00:29;8.90;;;8.10;;
4595;SDS011;2310;49.978;8.742;2022-07-29T17:04:30;10.13;;;9.30;;
4595;SDS011;2310;49.978;8.742;2022-07-29T17:08:32;13.93;;;12.63;;
4595;SDS011;2310;49.978;8.742;2022-07-29T17:12:36;10.33;;;9.33;;
4595;SDS011;2310;49.978;8.742;2022-07-29T17:16:39;9.30;;;8.50;;
4595;SDS011;2310;49.978;8.742;2022-07-29T17:20:40;6.80;;;6.20;;
4595;SDS011;2310;49.978;8.742;2022-07-29T17:24:42;11.20;;;10.30;;
4595;SDS011;2310;49.978;8.742;2022-07-29T17:28:45;12.07;;;11.13;;
4595;SDS011;2310;49.978;8.742;2022-07-29T17:32:48;7.33;;;6.63;;
4595;SDS011;2310;49.978;8.742;2022-07-29T17:36:49;7.30;;;6.60;;
4595;SDS011;2310;49.978;8.742;2022-07-29T17:40:50;7.10;;;6.40;;
4595;SDS011;2310;49.978;8.742;2022-07-29T17:44:52;5.63;;;4.97;;
4595;SDS011;2310;49.978;8.742;2022-07-29T17:48:53;5.53;;;5.03;;
4595;SDS011;2310;49.978;8.742;2022-07-29T17:52:55;5.77;;;5.27;;
4595;SDS011;2310;49.978;8.742;2022-07-29T17:56:57;5.37;;;4.87;;
4595;SDS011;2310;49.978;8.742;2022-07-29T18:00:59;7.57;;;5.07;;
4595;SDS011;2310;49.978;8.742;2022-07-29T18:05:00;5.30;;;4.80;;
4595;SDS011;2310;49.978;8.742;2022-07-29T18:09:02;4.43;;;3.90;;
4595;SDS011;2310;49.978;8.742;2022-07-29T18:13:04;6.33;;;4.73;;
4595;SDS011;2310;49.978;8.742;2022-07-29T18:17:05;5.53;;;4.63;;
4595;SDS011;2310;49.978;8.742;2022-07-29T18:21:06;14.30;;;7.43;;
4595;SDS011;2310;49.978;8.742;2022-07-29T18:25:07;7.03;;;5.70;;
4595;SDS011;2310;49.978;8.742;2022-07-29T18:29:09;8.27;;;5.40;;
4595;SDS011;2310;49.978;8.742;2022-07-29T18:33:12;7.10;;;5.70;;
4595;SDS011;2310;49.978;8.742;2022-07-29T18:37:17;7.00;;;6.40;;
4595;SDS011;2310;49.978;8.742;2022-07-29T18:41:20;5.97;;;5.37;;
4595;SDS011;2310;49.978;8.742;2022-07-29T18:45:21;5.37;;;4.60;;
4595;SDS011;2310;49.978;8.742;2022-07-29T18:49:24;4.87;;;4.00;;
4595;SDS011;2310;49.978;8.742;2022-07-29T18:53:26;7.00;;;5.13;;
4595;SDS011;2310;49.978;8.742;2022-07-29T18:57:27;5.30;;;4.80;;
4595;SDS011;2310;49.978;8.742;2022-07-29T19:01:30;5.67;;;5.17;;
4595;SDS011;2310;49.978;8.742;2022-07-29T19:05:32;6.20;;;5.37;;
4595;SDS011;2310;49.978;8.742;2022-07-29T19:09:34;7.50;;;5.00;;
4595;SDS011;2310;49.978;8.742;2022-07-29T19:13:39;7.20;;;5.80;;
4595;SDS011;2310;49.978;8.742;2022-07-29T19:17:40;7.27;;;5.70;;
4595;SDS011;2310;49.978;8.742;2022-07-29T19:21:41;5.73;;;4.97;;
4595;SDS011;2310;49.978;8.742;2022-07-29T19:25:42;8.60;;;5.83;;
4595;SDS011;2310;49.978;8.742;2022-07-29T19:29:46;8.87;;;8.10;;
4595;SDS011;2310;49.978;8.742;2022-07-29T19:33:47;8.63;;;7.83;;
4595;SDS011;2310;49.978;8.742;2022-07-29T19:37:49;8.23;;;7.53;;
4595;SDS011;2310;49.978;8.742;2022-07-29T19:41:52;7.20;;;5.20;;
4595;SDS011;2310;49.978;8.742;2022-07-29T19:45:56;6.27;;;5.23;;
4595;SDS011;2310;49.978;8.742;2022-07-29T19:49:57;8.10;;;5.47;;
4595;SDS011;2310;49.978;8.742;2022-07-29T19:54:00;5.80;;;5.30;;
4595;SDS011;2310;49.978;8.742;2022-07-29T19:58:01;5.73;;;5.13;;
4595;SDS011;2310;49.978;8.742;2022-07-29T20:02:05;6.53;;;5.43;;
4595;SDS011;2310;49.978;8.742;2022-07-29T20:06:09;6.90;;;6.20;;
4595;SDS011;2310;49.978;8.742;2022-07-29T20:10:10;7.53;;;6.67;;
4595;SDS011;2310;49.978;8.742;2022-07-29T20:14:11;7.27;;;6.67;;
4595;SDS011;2310;49.978;8.742;2022-07-29T20:18:13;6.23;;;5.63;;
4595;SDS011;2310;49.978;8.742;2022-07-29T20:22:16;6.00;;;5.50;;
4595;SDS011;2310;49.978;8.742;2022-07-29T20:26:20;7.00;;;6.40;;
4595;SDS011;2310;49.978;8.742;2022-07-29T20:30:21;5.57;;;4.97;;
4595;SDS011;2310;49.978;8.742;2022-07-29T20:34:23;5.93;;;5.43;;
4595;SDS011;2310;49.978;8.742;2022-07-29T20:38:24;6.20;;;5.53;;
4595;SDS011;2310;49.978;8.742;2022-07-29T20:42:25;8.70;;;5.63;;
4595;SDS011;2310;49.978;8.742;2022-07-29T20:46:26;5.73;;;5.23;;
4595;SDS011;2310;49.978;8.742;2022-07-29T20:50:28;5.77;;;4.80;;
4595;SDS011;2310;49.978;8.742;2022-07-29T20:54:29;5.87;;;4.80;;
4595;SDS011;2310;49.978;8.742;2022-07-29T20:58:31;6.03;;;5.10;;
4595;SDS011;2310;49.978;8.742;2022-07-29T21:02:34;5.70;;;5.00;;
4595;SDS011;2310;49.978;8.742;2022-07-29T21:06:36;5.37;;;4.87;;
4595;SDS011;2310;49.978;8.742;2022-07-29T21:10:37;4.97;;;4.57;;
4595;SDS011;2310;49.978;8.742;2022-07-29T21:14:38;5.70;;;5.20;;
4595;SDS011;2310;49.978;8.742;2022-07-29T21:18:42;5.87;;;5.17;;
4595;SDS011;2310;49.978;8.742;2022-07-29T21:22:45;18.83;;;17.23;;
4595;SDS011;2310;49.978;8.742;2022-07-29T21:26:47;7.80;;;7.10;;
4595;SDS011;2310;49.978;8.742;2022-07-29T21:30:50;8.10;;;7.40;;
4595;SDS011;2310;49.978;8.742;2022-07-29T21:34:51;10.60;;;9.17;;
4595;SDS011;2310;49.978;8.742;2022-07-29T21:38:52;7.60;;;6.90;;
4595;SDS011;2310;49.978;8.742;2022-07-29T21:42:54;7.47;;;6.83;;
4595;SDS011;2310;49.978;8.742;2022-07-29T21:46:55;6.70;;;6.10;;
4595;SDS011;2310;49.978;8.742;2022-07-29T21:50:56;8.20;;;7.40;;
4595;SDS011;2310;49.978;8.742;2022-07-29T21:54:59;7.13;;;6.53;;
4595;SDS011;2310;49.978;8.742;2022-07-29T21:59:00;6.60;;;6.00;;
4595;SDS011;2310;49.978;8.742;2022-07-29T22:03:04;11.43;;;10.43;;
4595;SDS011;2310;49.978;8.742;2022-07-29T22:07:05;8.63;;;7.93;;
4595;SDS011;2310;49.978;8.742;2022-07-29T22:11:06;8.03;;;7.33;;
4595;SDS011;2310;49.978;8.742;2022-07-29T22:15:08;11.50;;;9.20;;
4595;SDS011;2310;49.978;8.742;2022-07-29T22:19:11;9.53;;;8.63;;
4595;SDS011;2310;49.978;8.742;2022-07-29T22:23:13;9.27;;;8.27;;
4595;SDS011;2310;49.978;8.742;2022-07-29T22:27:14;9.90;;;9.00;;
4595;SDS011;2310;49.978;8.742;2022-07-29T22:31:15;8.03;;;7.23;;
4595;SDS011;2310;49.978;8.742;2022-07-29T22:35:17;8.70;;;8.00;;
4595;SDS011;2310;49.978;8.742;2022-07-29T22:39:18;7.63;;;7.03;;
4595;SDS011;2310;49.978;8.742;2022-07-29T22:43:19;6.97;;;6.27;;
4595;SDS011;2310;49.978;8.742;2022-07-29T22:47:20;7.73;;;7.03;;
4595;SDS011;2310;49.978;8.742;2022-07-29T22:51:24;9.10;;;8.40;;
4595;SDS011;2310;49.978;8.742;2022-07-29T22:55:25;8.97;;;8.27;;
4595;SDS011;2310;49.978;8.742;2022-07-29T22:59:26;8.40;;;7.63;;
4595;SDS011;2310;49.978;8.742;2022-07-29T23:03:28;9.73;;;8.83;;
4595;SDS011;2310;49.978;8.742;2022-07-29T23:07:29;8.90;;;8.00;;
4595;SDS011;2310;49.978;8.742;2022-07-29T23:11:30;9.93;;;8.90;;
4595;SDS011;2310;49.978;8.742;2022-07-29T23:15:32;8.73;;;7.93;;
4595;SDS011;2310;49.978;8.742;2022-07-29T23:19:33;10.43;;;9.43;;
4595;SDS011;2310;49.978;8.742;2022-07-29T23:23:34;7.97;;;7.37;;
4595;SDS011;2310;49.978;8.742;2022-07-29T23:27:35;8.90;;;8.17;;
4595;SDS011;2310;49.978;8.742;2022-07-29T23:31:37;8.10;;;7.37;;
4595;SDS011;2310;49.978;8.742;2022-07-29T23:35:40;7.60;;;7.00;;
4595;SDS011;2310;49.978;8.742;2022-07-29T23:39:41;8.40;;;7.57;;
4595;SDS011;2310;49.978;8.742;2022-07-29T23:43:43;7.87;;;7.17;;
4595;SDS011;2310;49.978;8.742;2022-07-29T23:47:44;8.67;;;7.90;;
4595;SDS011;2310;49.978;8.742;2022-07-29T23:51:45;9.90;;;9.10;;
4595;SDS011;2310;49.978;8.742;2022-07-29T23:55:47;8.83;;;8.03;;
4595;SDS011;2310;49.978;8.742;2022-07-29T23:59:48;9.40;;;8.70;;
